createdAt,value
2023-11-25T00:01:21.484Z,1.10
2023-11-25T00:05:38.942Z,1.00
2023-11-25T00:09:56.434Z,0.90
2023-11-25T00:14:14.096Z,0.90
2023-11-25T00:18:31.477Z,0.80
2023-11-25T00:22:49.117Z,0.80
2023-11-25T00:27:06.485Z,0.80
2023-11-25T00:31:24.215Z,0.80
2023-11-25T00:35:41.967Z,0.80
2023-11-25T00:40:00.463Z,0.90
2023-11-25T00:44:17.827Z,0.90
2023-11-25T00:48:37.552Z,0.90
2023-11-25T00:52:55.279Z,0.90
2023-11-25T00:57:12.586Z,1.00
2023-11-25T01:01:30.482Z,1.00
2023-11-25T01:05:47.813Z,1.00
2023-11-25T01:10:05.671Z,1.00
2023-11-25T01:14:23.087Z,1.10
2023-11-25T01:18:40.666Z,1.10
2023-11-25T01:22:57.895Z,1.10
2023-11-25T01:27:15.685Z,1.10
2023-11-25T01:31:33.268Z,1.10
2023-11-25T01:35:50.702Z,1.10
2023-11-25T01:40:12.365Z,1.20
2023-11-25T01:44:29.782Z,1.10
2023-11-25T01:48:47.732Z,1.10
2023-11-25T01:53:06.996Z,1.10
2023-11-25T01:57:24.525Z,1.20
2023-11-25T02:01:42.769Z,1.20
2023-11-25T02:06:00.302Z,1.20
2023-11-25T02:10:17.608Z,1.20
2023-11-25T02:14:34.986Z,1.20
2023-11-25T02:18:53.122Z,1.40
2023-11-25T02:23:17.514Z,1.30
2023-11-25T02:27:35.898Z,1.30
2023-11-25T02:31:53.324Z,1.20
2023-11-25T02:36:10.702Z,1.30
2023-11-25T02:40:28.838Z,1.20
2023-11-25T02:44:46.771Z,1.20
2023-11-25T02:49:04.085Z,1.30
2023-11-25T02:53:21.378Z,1.30
2023-11-25T02:57:44.348Z,1.30
2023-11-25T03:02:11.082Z,1.20
2023-11-25T03:06:32.107Z,1.30
2023-11-25T03:10:52.037Z,1.30
2023-11-25T03:15:09.853Z,1.30
2023-11-25T03:19:27.664Z,1.30
2023-11-25T03:23:45.176Z,1.20
2023-11-25T03:28:11.972Z,1.30
2023-11-25T03:32:30.365Z,1.30
2023-11-25T03:36:48.484Z,1.30
2023-11-25T03:41:06.451Z,1.30
2023-11-25T03:45:23.727Z,1.30
2023-11-25T03:49:41.558Z,1.40
2023-11-25T03:53:58.887Z,1.30
2023-11-25T03:58:16.241Z,1.30
2023-11-25T04:02:33.782Z,1.30
2023-11-25T04:06:51.516Z,1.40
2023-11-25T04:11:09.481Z,1.30
2023-11-25T04:15:26.928Z,1.30
2023-11-25T04:19:44.212Z,1.30
2023-11-25T04:24:01.765Z,1.40
2023-11-25T04:28:20.330Z,1.30
2023-11-25T04:32:41.836Z,1.30
2023-11-25T04:36:59.216Z,1.30
2023-11-25T04:41:17.115Z,1.30
2023-11-25T04:45:35.885Z,1.40
2023-11-25T04:49:53.993Z,1.30
2023-11-25T04:54:11.401Z,1.30
2023-11-25T04:58:28.887Z,1.30
2023-11-25T05:02:46.502Z,1.30
2023-11-25T05:07:05.445Z,1.20
2023-11-25T05:11:22.767Z,1.30
2023-11-25T05:15:40.511Z,1.20
2023-11-25T05:19:57.867Z,1.20
2023-11-25T05:24:15.159Z,1.20
2023-11-25T05:28:32.759Z,1.20
2023-11-25T05:32:50.611Z,1.10
2023-11-25T05:37:11.293Z,1.10
2023-11-25T05:41:28.958Z,1.10
2023-11-25T05:45:47.429Z,1.10
2023-11-25T05:50:06.036Z,1.10
2023-11-25T05:54:23.840Z,1.00
2023-11-25T05:58:41.372Z,1.00
2023-11-25T06:02:58.834Z,0.90
2023-11-25T06:07:16.220Z,0.80
2023-11-25T06:11:37.357Z,0.80
2023-11-25T06:15:55.049Z,0.70
2023-11-25T06:20:14.064Z,0.60
2023-11-25T06:24:32.077Z,0.60
2023-11-25T06:28:49.597Z,0.50
2023-11-25T06:33:07.819Z,0.50
2023-11-25T06:37:25.857Z,0.40
2023-11-25T06:41:50.336Z,0.40
2023-11-25T06:46:07.979Z,0.50
2023-11-25T06:50:25.618Z,0.50
2023-11-25T06:54:43.128Z,0.50
2023-11-25T06:59:01.518Z,0.50
2023-11-25T07:03:19.031Z,0.50
2023-11-25T07:07:37.283Z,0.40
2023-11-25T07:11:55.295Z,0.50
2023-11-25T07:16:13.555Z,0.40
2023-11-25T07:20:31.470Z,0.40
2023-11-25T07:24:49.042Z,0.50
2023-11-25T07:29:07.074Z,0.50
2023-11-25T07:33:24.754Z,0.50
2023-11-25T07:37:42.391Z,0.60
2023-11-25T07:42:00.992Z,0.70
2023-11-25T07:46:18.875Z,0.70
2023-11-25T07:50:39.048Z,0.70
2023-11-25T07:54:56.909Z,0.80
2023-11-25T07:59:14.644Z,0.90
2023-11-25T08:03:37.949Z,0.90
2023-11-25T08:07:56.590Z,1.00
2023-11-25T08:12:14.248Z,1.10
2023-11-25T08:16:31.673Z,1.10
2023-11-25T08:20:49.176Z,1.20
2023-11-25T08:25:10.162Z,1.30
2023-11-25T08:29:27.936Z,1.20
2023-11-25T08:33:45.354Z,1.20
2023-11-25T08:38:02.726Z,1.20
2023-11-25T08:42:20.150Z,1.20
2023-11-25T08:46:39.443Z,1.20
2023-11-25T08:50:57.548Z,1.30
2023-11-25T08:55:19.355Z,1.30
2023-11-25T08:59:37.481Z,1.50
2023-11-25T09:03:55.003Z,1.60
2023-11-25T09:08:12.541Z,1.70
2023-11-25T09:12:29.842Z,1.80
2023-11-25T09:16:48.232Z,2.00
2023-11-25T09:21:06.138Z,2.10
2023-11-25T09:25:23.703Z,2.20
2023-11-25T09:29:46.981Z,2.60
2023-11-25T09:34:04.793Z,2.60
2023-11-25T09:38:22.849Z,2.60
2023-11-25T09:42:40.701Z,2.90
2023-11-25T09:46:58.216Z,2.90
2023-11-25T09:51:21.996Z,2.80
2023-11-25T09:55:39.708Z,2.80
2023-11-25T09:59:57.483Z,2.70
2023-11-25T10:04:16.987Z,2.80
2023-11-25T10:08:37.389Z,2.70
2023-11-25T10:12:55.377Z,2.70
2023-11-25T10:17:25.247Z,3.00
2023-11-25T10:21:42.694Z,2.90
2023-11-25T10:26:04.462Z,2.90
2023-11-25T10:30:22.593Z,2.80
2023-11-25T10:34:40.340Z,2.60
2023-11-25T10:38:58.273Z,2.30
2023-11-25T10:43:16.205Z,2.10
2023-11-25T10:47:37.111Z,1.80
2023-11-25T10:51:58.090Z,1.70
2023-11-25T10:56:17.326Z,1.60
2023-11-25T11:00:38.308Z,1.40
2023-11-25T11:05:02.658Z,1.40
2023-11-25T11:09:21.498Z,1.40
2023-11-25T11:13:47.382Z,1.50
2023-11-25T11:18:24.487Z,1.70
2023-11-25T11:22:45.548Z,1.70
2023-11-25T11:27:22.615Z,1.80
2023-11-25T11:32:02.289Z,1.80
2023-11-25T11:36:24.106Z,1.50
2023-11-25T11:40:45.602Z,1.40
2023-11-25T11:45:16.893Z,1.40
2023-11-25T11:49:36.402Z,1.60
2023-11-25T11:54:32.622Z,1.70
2023-11-25T11:59:04.570Z,1.70
2023-11-25T12:03:22.277Z,1.70
2023-11-25T12:07:40.147Z,1.70
2023-11-25T12:12:01.534Z,1.70
2023-11-25T12:16:18.942Z,1.80
2023-11-25T12:20:37.599Z,1.80
2023-11-25T12:24:55.053Z,1.80
2023-11-25T12:29:14.638Z,1.80
2023-11-25T12:33:32.347Z,1.90
2023-11-25T12:38:01.208Z,1.80
2023-11-25T12:42:25.722Z,1.70
2023-11-25T12:46:43.704Z,1.70
2023-11-25T12:51:14.369Z,1.70
2023-11-25T12:55:44.040Z,1.60
2023-11-25T13:00:09.975Z,1.60
2023-11-25T13:04:28.688Z,1.70
2023-11-25T13:08:46.705Z,1.80
2023-11-25T13:13:04.333Z,1.90
2023-11-25T13:17:21.635Z,1.90
2023-11-25T13:21:39.320Z,2.10
2023-11-25T13:25:56.907Z,2.20
2023-11-25T13:30:14.587Z,2.30
2023-11-25T13:34:32.237Z,2.40
2023-11-25T13:38:50.097Z,2.40
2023-11-25T13:43:22.023Z,2.30
2023-11-25T13:47:40.046Z,2.30
2023-11-25T13:51:58.117Z,2.20
2023-11-25T13:56:15.520Z,2.20
2023-11-25T14:00:33.057Z,2.20
2023-11-25T14:04:50.585Z,2.20
2023-11-25T14:09:11.770Z,2.20
2023-11-25T14:13:32.104Z,2.20
2023-11-25T14:17:49.739Z,2.10
2023-11-25T14:22:07.323Z,2.20
2023-11-25T14:26:27.131Z,2.20
2023-11-25T14:30:44.590Z,2.20
2023-11-25T14:35:02.113Z,2.20
2023-11-25T14:39:19.971Z,2.20
2023-11-25T14:43:37.464Z,2.20
2023-11-25T14:47:54.960Z,2.20
2023-11-25T14:52:12.273Z,2.20
2023-11-25T14:56:29.686Z,2.10
2023-11-25T15:00:47.286Z,2.00
2023-11-25T15:05:05.813Z,2.00
2023-11-25T15:09:24.118Z,2.00
2023-11-25T15:13:41.396Z,2.00
2023-11-25T15:17:58.976Z,2.10
2023-11-25T15:22:17.062Z,2.10
2023-11-25T15:26:36.327Z,2.00
2023-11-25T15:30:53.679Z,2.00
2023-11-25T15:35:11.892Z,2.00
2023-11-25T15:39:29.227Z,2.10
2023-11-25T15:43:46.949Z,2.30
2023-11-25T15:48:04.590Z,2.40
2023-11-25T15:52:22.045Z,2.50
2023-11-25T15:56:39.576Z,2.60
2023-11-25T16:00:57.093Z,2.60
2023-11-25T16:05:15.582Z,2.60
2023-11-25T16:09:36.628Z,2.60
2023-11-25T16:13:54.899Z,2.70
2023-11-25T16:18:16.155Z,2.70
2023-11-25T16:22:33.645Z,2.70
2023-11-25T16:26:51.453Z,2.70
2023-11-25T16:31:11.262Z,2.70
2023-11-25T16:35:29.268Z,2.70
2023-11-25T16:39:46.976Z,2.70
2023-11-25T16:44:05.857Z,2.60
2023-11-25T16:48:32.587Z,2.40
2023-11-25T16:52:57.355Z,2.20
2023-11-25T16:57:15.986Z,2.00
2023-11-25T17:01:33.513Z,2.00
2023-11-25T17:05:51.016Z,2.00
2023-11-25T17:10:09.825Z,2.00
2023-11-25T17:14:27.103Z,2.10
2023-11-25T17:18:44.593Z,2.10
2023-11-25T17:23:02.509Z,2.20
2023-11-25T17:27:21.097Z,2.20
2023-11-25T17:31:38.565Z,2.10
2023-11-25T17:35:55.940Z,2.10
2023-11-25T17:40:13.648Z,1.90
2023-11-25T17:44:31.288Z,1.90
2023-11-25T17:48:48.779Z,1.80
2023-11-25T17:53:12.470Z,1.70
2023-11-25T17:57:33.819Z,1.60
2023-11-25T18:01:51.777Z,1.40
2023-11-25T18:06:09.223Z,1.50
2023-11-25T18:10:28.891Z,1.50
2023-11-25T18:14:46.459Z,1.50
2023-11-25T18:19:03.794Z,1.50
2023-11-25T18:23:21.359Z,1.40
2023-11-25T18:27:39.911Z,1.40
2023-11-25T18:31:57.586Z,1.40
2023-11-25T18:36:14.985Z,1.50
2023-11-25T18:40:32.332Z,1.50
2023-11-25T18:44:49.720Z,1.50
2023-11-25T18:49:08.250Z,1.50
2023-11-25T18:53:25.637Z,1.50
2023-11-25T18:57:44.524Z,1.60
2023-11-25T19:02:02.091Z,1.60
2023-11-25T19:06:19.949Z,1.70
2023-11-25T19:10:37.323Z,1.70
2023-11-25T19:14:55.280Z,1.70
2023-11-25T19:19:12.813Z,1.60
2023-11-25T19:23:30.338Z,1.70
2023-11-25T19:27:48.788Z,1.80
2023-11-25T19:32:06.769Z,1.80
2023-11-25T19:36:24.104Z,1.80
2023-11-25T19:40:41.909Z,1.80
2023-11-25T19:44:59.646Z,1.80
2023-11-25T19:49:17.258Z,1.90
2023-11-25T19:53:49.630Z,1.90
2023-11-25T19:58:09.278Z,1.90
2023-11-25T20:02:27.640Z,1.80
2023-11-25T20:06:45.371Z,1.80
2023-11-25T20:11:06.003Z,1.80
2023-11-25T20:15:25.215Z,1.80
2023-11-25T20:19:45.268Z,1.80
2023-11-25T20:24:02.786Z,1.90
2023-11-25T20:28:20.155Z,1.80
2023-11-25T20:32:38.476Z,1.60
2023-11-25T20:36:56.349Z,1.50
2023-11-25T20:41:13.793Z,1.50
2023-11-25T20:45:31.325Z,1.50
2023-11-25T20:49:48.722Z,1.60
2023-11-25T20:54:06.676Z,1.60
2023-11-25T20:58:28.746Z,1.60
2023-11-25T21:02:51.224Z,1.60
2023-11-25T21:07:09.228Z,1.60
2023-11-25T21:11:26.637Z,1.60
2023-11-25T21:15:44.001Z,1.70
2023-11-25T21:20:01.666Z,1.70
2023-11-25T21:24:19.001Z,1.70
2023-11-25T21:28:36.348Z,1.70
2023-11-25T21:32:53.876Z,1.70
2023-11-25T21:37:11.219Z,1.80
2023-11-25T21:41:28.646Z,1.80
2023-11-25T21:45:46.388Z,1.80
2023-11-25T21:50:04.033Z,1.80
2023-11-25T21:54:21.462Z,1.70
2023-11-25T21:58:42.705Z,1.70
2023-11-25T22:03:00.439Z,1.70
2023-11-25T22:07:17.982Z,1.90
2023-11-25T22:11:35.461Z,1.70
2023-11-25T22:15:58.989Z,1.70
2023-11-25T22:20:20.624Z,1.70
2023-11-25T22:24:38.938Z,1.70
2023-11-25T22:28:56.257Z,1.70
2023-11-25T22:33:15.468Z,1.70
2023-11-25T22:37:34.447Z,1.70
2023-11-25T22:41:52.113Z,1.80
2023-11-25T22:46:09.528Z,1.70
2023-11-25T22:50:26.984Z,1.80
2023-11-25T22:54:45.316Z,1.70
2023-11-25T22:59:03.018Z,1.70
2023-11-25T23:03:21.274Z,1.70
2023-11-25T23:07:38.826Z,1.60
2023-11-25T23:11:56.207Z,1.60
2023-11-25T23:16:16.362Z,1.60
2023-11-25T23:20:34.017Z,1.60
2023-11-25T23:24:51.494Z,1.60
2023-11-25T23:29:08.890Z,1.50
2023-11-25T23:33:26.363Z,1.40
2023-11-25T23:37:44.480Z,1.40
2023-11-25T23:42:01.775Z,1.30
2023-11-25T23:46:19.408Z,1.10
2023-11-25T23:50:36.876Z,1.00
2023-11-25T23:54:54.293Z,0.90
2023-11-25T23:59:13.154Z,0.80
